sensor_id;sensor_type;location;lat;lon;timestamp;P1;P2;P0
70249;PMS5003;57644;48.416;-123.374;2022-10-15T00:01:11;22;19;
70249;PMS5003;57644;48.416;-123.374;2022-10-15T00:03:42;30;27;
70249;PMS5003;57644;48.416;-123.374;2022-10-15T00:06:13;32;30;
70249;PMS5003;57644;48.416;-123.374;2022-10-15T00:08:42;33;28;
70249;PMS5003;57644;48.416;-123.374;2022-10-15T00:11:13;29;27;
70249;PMS5003;57644;48.416;-123.374;2022-10-15T00:13:42;27;25;
70249;PMS5003;57644;48.416;-123.374;2022-10-15T00:16:14;21;19;
70249;PMS5003;57644;48.416;-123.374;2022-10-15T00:18:44;22;19;
70249;PMS5003;57644;48.416;-123.374;2022-10-15T00:21:14;26;25;
70249;PMS5003;57644;48.416;-123.374;2022-10-15T00:23:44;24;23;
70249;PMS5003;57644;48.416;-123.374;2022-10-15T00:26:16;30;28;
70249;PMS5003;57644;48.416;-123.374;2022-10-15T00:28:45;20;20;
70249;PMS5003;57644;48.416;-123.374;2022-10-15T00:31:16;21;21;
70249;PMS5003;57644;48.416;-123.374;2022-10-15T00:33:47;17;17;
70249;PMS5003;57644;48.416;-123.374;2022-10-15T00:36:17;17;16;
70249;PMS5003;57644;48.416;-123.374;2022-10-15T00:38:47;17;16;
70249;PMS5003;57644;48.416;-123.374;2022-10-15T00:41:18;17;16;
70249;PMS5003;57644;48.416;-123.374;2022-10-15T00:43:49;18;18;
70249;PMS5003;57644;48.416;-123.374;2022-10-15T00:46:20;18;16;
70249;PMS5003;57644;48.416;-123.374;2022-10-15T00:48:52;21;17;
70249;PMS5003;57644;48.416;-123.374;2022-10-15T00:51:19;17;17;
70249;PMS5003;57644;48.416;-123.374;2022-10-15T00:53:50;13;13;
70249;PMS5003;57644;48.416;-123.374;2022-10-15T00:56:20;17;17;
70249;PMS5003;57644;48.416;-123.374;2022-10-15T00:58:50;16;13;
70249;PMS5003;57644;48.416;-123.374;2022-10-15T01:01:20;20;19;
70249;PMS5003;57644;48.416;-123.374;2022-10-15T01:03:51;15;15;
70249;PMS5003;57644;48.416;-123.374;2022-10-15T01:06:21;16;15;
70249;PMS5003;57644;48.416;-123.374;2022-10-15T01:08:51;14;13;
70249;PMS5003;57644;48.416;-123.374;2022-10-15T01:11:27;19;18;
70249;PMS5003;57644;48.416;-123.374;2022-10-15T01:13:53;13;13;
70249;PMS5003;57644;48.416;-123.374;2022-10-15T01:16:23;15;15;
70249;PMS5003;57644;48.416;-123.374;2022-10-15T01:18:54;15;14;
70249;PMS5003;57644;48.416;-123.374;2022-10-15T01:21:24;17;16;
70249;PMS5003;57644;48.416;-123.374;2022-10-15T01:24:02;15;14;
70249;PMS5003;57644;48.416;-123.374;2022-10-15T01:26:28;16;15;
70249;PMS5003;57644;48.416;-123.374;2022-10-15T01:28:57;18;17;
70249;PMS5003;57644;48.416;-123.374;2022-10-15T01:31:24;14;13;
70249;PMS5003;57644;48.416;-123.374;2022-10-15T01:33:56;16;16;
70249;PMS5003;57644;48.416;-123.374;2022-10-15T01:36:27;16;15;
70249;PMS5003;57644;48.416;-123.374;2022-10-15T01:38:56;14;13;
70249;PMS5003;57644;48.416;-123.374;2022-10-15T01:41:26;15;13;
70249;PMS5003;57644;48.416;-123.374;2022-10-15T01:43:57;15;14;
70249;PMS5003;57644;48.416;-123.374;2022-10-15T01:46:28;18;18;
70249;PMS5003;57644;48.416;-123.374;2022-10-15T01:48:56;14;14;
70249;PMS5003;57644;48.416;-123.374;2022-10-15T01:51:27;17;16;
70249;PMS5003;57644;48.416;-123.374;2022-10-15T01:53:58;13;13;
70249;PMS5003;57644;48.416;-123.374;2022-10-15T01:56:28;14;14;
70249;PMS5003;57644;48.416;-123.374;2022-10-15T01:58:58;18;16;
70249;PMS5003;57644;48.416;-123.374;2022-10-15T02:01:28;14;14;
70249;PMS5003;57644;48.416;-123.374;2022-10-15T02:03:58;16;16;
70249;PMS5003;57644;48.416;-123.374;2022-10-15T02:06:29;23;20;
70249;PMS5003;57644;48.416;-123.374;2022-10-15T02:09:02;20;20;
70249;PMS5003;57644;48.416;-123.374;2022-10-15T02:11:29;21;20;
70249;PMS5003;57644;48.416;-123.374;2022-10-15T02:14:00;23;22;
70249;PMS5003;57644;48.416;-123.374;2022-10-15T02:16:30;18;17;
70249;PMS5003;57644;48.416;-123.374;2022-10-15T02:19:02;16;16;
70249;PMS5003;57644;48.416;-123.374;2022-10-15T02:21:31;17;15;
70249;PMS5003;57644;48.416;-123.374;2022-10-15T02:24:02;14;14;
70249;PMS5003;57644;48.416;-123.374;2022-10-15T02:26:30;14;14;
70249;PMS5003;57644;48.416;-123.374;2022-10-15T02:29:02;17;16;
70249;PMS5003;57644;48.416;-123.374;2022-10-15T02:31:31;14;14;
70249;PMS5003;57644;48.416;-123.374;2022-10-15T02:34:02;16;16;
70249;PMS5003;57644;48.416;-123.374;2022-10-15T02:36:31;14;14;
70249;PMS5003;57644;48.416;-123.374;2022-10-15T02:39:03;15;14;
70249;PMS5003;57644;48.416;-123.374;2022-10-15T02:41:32;18;17;
70249;PMS5003;57644;48.416;-123.374;2022-10-15T02:44:02;13;13;
70249;PMS5003;57644;48.416;-123.374;2022-10-15T02:46:32;17;17;
70249;PMS5003;57644;48.416;-123.374;2022-10-15T02:49:03;22;22;
70249;PMS5003;57644;48.416;-123.374;2022-10-15T02:51:34;21;21;
70249;PMS5003;57644;48.416;-123.374;2022-10-15T02:54:04;18;18;
70249;PMS5003;57644;48.416;-123.374;2022-10-15T02:56:34;24;23;
70249;PMS5003;57644;48.416;-123.374;2022-10-15T02:59:04;19;17;
70249;PMS5003;57644;48.416;-123.374;2022-10-15T03:01:34;19;19;
70249;PMS5003;57644;48.416;-123.374;2022-10-15T03:04:05;17;15;
70249;PMS5003;57644;48.416;-123.374;2022-10-15T03:06:36;26;24;
70249;PMS5003;57644;48.416;-123.374;2022-10-15T03:09:07;23;22;
70249;PMS5003;57644;48.416;-123.374;2022-10-15T03:11:37;19;18;
70249;PMS5003;57644;48.416;-123.374;2022-10-15T03:14:07;17;16;
70249;PMS5003;57644;48.416;-123.374;2022-10-15T03:16:41;14;14;
70249;PMS5003;57644;48.416;-123.374;2022-10-15T03:19:08;13;13;
70249;PMS5003;57644;48.416;-123.374;2022-10-15T03:21:38;11;11;
70249;PMS5003;57644;48.416;-123.374;2022-10-15T03:24:08;14;14;
70249;PMS5003;57644;48.416;-123.374;2022-10-15T03:26:43;19;18;
70249;PMS5003;57644;48.416;-123.374;2022-10-15T03:29:09;21;21;
70249;PMS5003;57644;48.416;-123.374;2022-10-15T03:31:39;16;14;
70249;PMS5003;57644;48.416;-123.374;2022-10-15T03:34:09;17;15;
70249;PMS5003;57644;48.416;-123.374;2022-10-15T03:36:39;19;19;
70249;PMS5003;57644;48.416;-123.374;2022-10-15T03:39:09;15;14;
70249;PMS5003;57644;48.416;-123.374;2022-10-15T03:41:40;19;17;
70249;PMS5003;57644;48.416;-123.374;2022-10-15T03:44:10;21;19;
70249;PMS5003;57644;48.416;-123.374;2022-10-15T03:46:41;13;13;
70249;PMS5003;57644;48.416;-123.374;2022-10-15T03:49:11;14;14;
70249;PMS5003;57644;48.416;-123.374;2022-10-15T03:51:41;16;14;
70249;PMS5003;57644;48.416;-123.374;2022-10-15T03:54:12;18;14;
70249;PMS5003;57644;48.416;-123.374;2022-10-15T03:56:42;17;17;
70249;PMS5003;57644;48.416;-123.374;2022-10-15T03:59:12;23;23;
70249;PMS5003;57644;48.416;-123.374;2022-10-15T04:01:43;20;20;
70249;PMS5003;57644;48.416;-123.374;2022-10-15T04:04:14;16;15;
70249;PMS5003;57644;48.416;-123.374;2022-10-15T04:06:44;16;15;
70249;PMS5003;57644;48.416;-123.374;2022-10-15T04:09:15;15;14;
70249;PMS5003;57644;48.416;-123.374;2022-10-15T04:11:45;14;14;
70249;PMS5003;57644;48.416;-123.374;2022-10-15T04:14:15;15;15;
70249;PMS5003;57644;48.416;-123.374;2022-10-15T04:16:45;19;18;
70249;PMS5003;57644;48.416;-123.374;2022-10-15T04:19:18;22;21;
70249;PMS5003;57644;48.416;-123.374;2022-10-15T04:21:47;16;16;
70249;PMS5003;57644;48.416;-123.374;2022-10-15T04:24:17;19;18;
70249;PMS5003;57644;48.416;-123.374;2022-10-15T04:26:48;19;18;
70249;PMS5003;57644;48.416;-123.374;2022-10-15T04:29:18;20;19;
70249;PMS5003;57644;48.416;-123.374;2022-10-15T04:31:49;19;19;
70249;PMS5003;57644;48.416;-123.374;2022-10-15T04:34:20;18;17;
70249;PMS5003;57644;48.416;-123.374;2022-10-15T04:36:49;18;17;
70249;PMS5003;57644;48.416;-123.374;2022-10-15T04:39:20;19;19;
70249;PMS5003;57644;48.416;-123.374;2022-10-15T04:41:52;23;21;
70249;PMS5003;57644;48.416;-123.374;2022-10-15T04:44:22;20;19;
70249;PMS5003;57644;48.416;-123.374;2022-10-15T04:46:52;20;19;
70249;PMS5003;57644;48.416;-123.374;2022-10-15T04:49:24;23;23;
70249;PMS5003;57644;48.416;-123.374;2022-10-15T04:51:55;22;21;
70249;PMS5003;57644;48.416;-123.374;2022-10-15T04:54:23;19;18;
70249;PMS5003;57644;48.416;-123.374;2022-10-15T04:56:53;19;18;
70249;PMS5003;57644;48.416;-123.374;2022-10-15T04:59:23;20;19;
70249;PMS5003;57644;48.416;-123.374;2022-10-15T05:01:53;18;18;
70249;PMS5003;57644;48.416;-123.374;2022-10-15T05:04:27;22;22;
70249;PMS5003;57644;48.416;-123.374;2022-10-15T05:06:54;27;26;
70249;PMS5003;57644;48.416;-123.374;2022-10-15T05:09:25;24;24;
70249;PMS5003;57644;48.416;-123.374;2022-10-15T05:11:54;24;23;
70249;PMS5003;57644;48.416;-123.374;2022-10-15T05:14:24;19;19;
70249;PMS5003;57644;48.416;-123.374;2022-10-15T05:16:55;22;21;
70249;PMS5003;57644;48.416;-123.374;2022-10-15T05:19:26;19;18;
70249;PMS5003;57644;48.416;-123.374;2022-10-15T05:21:56;24;20;
70249;PMS5003;57644;48.416;-123.374;2022-10-15T05:24:26;21;21;
70249;PMS5003;57644;48.416;-123.374;2022-10-15T05:26:56;24;22;
70249;PMS5003;57644;48.416;-123.374;2022-10-15T05:29:26;19;18;
70249;PMS5003;57644;48.416;-123.374;2022-10-15T05:31:57;23;22;
70249;PMS5003;57644;48.416;-123.374;2022-10-15T05:34:28;22;21;
70249;PMS5003;57644;48.416;-123.374;2022-10-15T05:36:57;14;14;
70249;PMS5003;57644;48.416;-123.374;2022-10-15T05:39:27;22;22;
70249;PMS5003;57644;48.416;-123.374;2022-10-15T05:41:58;20;18;
70249;PMS5003;57644;48.416;-123.374;2022-10-15T05:44:28;21;20;
70249;PMS5003;57644;48.416;-123.374;2022-10-15T05:46:59;20;18;
70249;PMS5003;57644;48.416;-123.374;2022-10-15T05:49:33;26;23;
70249;PMS5003;57644;48.416;-123.374;2022-10-15T05:51:59;18;17;
70249;PMS5003;57644;48.416;-123.374;2022-10-15T05:54:29;19;18;
70249;PMS5003;57644;48.416;-123.374;2022-10-15T05:57:00;18;17;
70249;PMS5003;57644;48.416;-123.374;2022-10-15T05:59:29;18;18;
70249;PMS5003;57644;48.416;-123.374;2022-10-15T06:01:59;19;19;
70249;PMS5003;57644;48.416;-123.374;2022-10-15T06:04:30;18;18;
70249;PMS5003;57644;48.416;-123.374;2022-10-15T06:07:00;14;14;
70249;PMS5003;57644;48.416;-123.374;2022-10-15T06:09:31;19;19;
70249;PMS5003;57644;48.416;-123.374;2022-10-15T06:12:01;16;16;
70249;PMS5003;57644;48.416;-123.374;2022-10-15T06:14:32;18;17;
70249;PMS5003;57644;48.416;-123.374;2022-10-15T06:17:02;17;16;
70249;PMS5003;57644;48.416;-123.374;2022-10-15T06:19:33;19;18;
70249;PMS5003;57644;48.416;-123.374;2022-10-15T06:22:03;17;15;
70249;PMS5003;57644;48.416;-123.374;2022-10-15T06:24:34;19;18;
70249;PMS5003;57644;48.416;-123.374;2022-10-15T06:27:04;17;16;
70249;PMS5003;57644;48.416;-123.374;2022-10-15T06:29:35;16;15;
70249;PMS5003;57644;48.416;-123.374;2022-10-15T06:32:08;16;16;
70249;PMS5003;57644;48.416;-123.374;2022-10-15T06:34:36;16;16;
70249;PMS5003;57644;48.416;-123.374;2022-10-15T06:37:06;15;15;
70249;PMS5003;57644;48.416;-123.374;2022-10-15T06:39:37;16;15;
70249;PMS5003;57644;48.416;-123.374;2022-10-15T06:42:07;15;14;
70249;PMS5003;57644;48.416;-123.374;2022-10-15T06:44:39;17;16;
70249;PMS5003;57644;48.416;-123.374;2022-10-15T06:47:09;15;14;
70249;PMS5003;57644;48.416;-123.374;2022-10-15T06:49:39;16;15;
70249;PMS5003;57644;48.416;-123.374;2022-10-15T06:52:10;18;17;
70249;PMS5003;57644;48.416;-123.374;2022-10-15T06:54:39;14;14;
70249;PMS5003;57644;48.416;-123.374;2022-10-15T06:57:09;16;15;
70249;PMS5003;57644;48.416;-123.374;2022-10-15T06:59:40;18;18;
70249;PMS5003;57644;48.416;-123.374;2022-10-15T07:02:11;13;13;
70249;PMS5003;57644;48.416;-123.374;2022-10-15T07:04:41;12;10;
70249;PMS5003;57644;48.416;-123.374;2022-10-15T07:07:11;16;14;
70249;PMS5003;57644;48.416;-123.374;2022-10-15T07:09:41;14;14;
70249;PMS5003;57644;48.416;-123.374;2022-10-15T07:12:12;19;15;
70249;PMS5003;57644;48.416;-123.374;2022-10-15T07:14:42;14;14;
70249;PMS5003;57644;48.416;-123.374;2022-10-15T07:17:12;17;17;
70249;PMS5003;57644;48.416;-123.374;2022-10-15T07:19:43;16;15;
70249;PMS5003;57644;48.416;-123.374;2022-10-15T07:22:13;12;12;
70249;PMS5003;57644;48.416;-123.374;2022-10-15T07:24:44;14;14;
70249;PMS5003;57644;48.416;-123.374;2022-10-15T07:27:14;12;11;
70249;PMS5003;57644;48.416;-123.374;2022-10-15T07:29:44;17;16;
70249;PMS5003;57644;48.416;-123.374;2022-10-15T07:32:14;13;12;
70249;PMS5003;57644;48.416;-123.374;2022-10-15T07:34:44;14;14;
70249;PMS5003;57644;48.416;-123.374;2022-10-15T07:37:15;13;13;
70249;PMS5003;57644;48.416;-123.374;2022-10-15T07:39:45;17;15;
70249;PMS5003;57644;48.416;-123.374;2022-10-15T07:42:16;15;14;
70249;PMS5003;57644;48.416;-123.374;2022-10-15T07:44:46;12;12;
70249;PMS5003;57644;48.416;-123.374;2022-10-15T07:47:16;13;12;
70249;PMS5003;57644;48.416;-123.374;2022-10-15T07:49:47;15;14;
70249;PMS5003;57644;48.416;-123.374;2022-10-15T07:52:18;14;13;
70249;PMS5003;57644;48.416;-123.374;2022-10-15T07:54:48;12;11;
70249;PMS5003;57644;48.416;-123.374;2022-10-15T07:57:18;14;14;
70249;PMS5003;57644;48.416;-123.374;2022-10-15T07:59:49;14;14;
70249;PMS5003;57644;48.416;-123.374;2022-10-15T08:02:19;12;12;
70249;PMS5003;57644;48.416;-123.374;2022-10-15T08:04:49;16;16;
70249;PMS5003;57644;48.416;-123.374;2022-10-15T08:07:19;14;14;
70249;PMS5003;57644;48.416;-123.374;2022-10-15T08:09:50;13;12;
70249;PMS5003;57644;48.416;-123.374;2022-10-15T08:12:20;13;12;
70249;PMS5003;57644;48.416;-123.374;2022-10-15T08:14:51;14;14;
70249;PMS5003;57644;48.416;-123.374;2022-10-15T08:17:21;16;15;
70249;PMS5003;57644;48.416;-123.374;2022-10-15T08:19:52;11;11;
70249;PMS5003;57644;48.416;-123.374;2022-10-15T08:22:21;15;15;
70249;PMS5003;57644;48.416;-123.374;2022-10-15T08:24:52;18;16;
70249;PMS5003;57644;48.416;-123.374;2022-10-15T08:27:22;13;12;
70249;PMS5003;57644;48.416;-123.374;2022-10-15T08:29:52;15;14;
70249;PMS5003;57644;48.416;-123.374;2022-10-15T08:32:22;14;13;
70249;PMS5003;57644;48.416;-123.374;2022-10-15T08:34:53;13;13;
70249;PMS5003;57644;48.416;-123.374;2022-10-15T08:37:23;12;12;
70249;PMS5003;57644;48.416;-123.374;2022-10-15T08:39:54;12;12;
70249;PMS5003;57644;48.416;-123.374;2022-10-15T08:42:26;19;17;
70249;PMS5003;57644;48.416;-123.374;2022-10-15T08:44:57;12;12;
70249;PMS5003;57644;48.416;-123.374;2022-10-15T08:47:28;16;15;
70249;PMS5003;57644;48.416;-123.374;2022-10-15T08:49:56;13;11;
70249;PMS5003;57644;48.416;-123.374;2022-10-15T08:52:28;17;16;
70249;PMS5003;57644;48.416;-123.374;2022-10-15T08:54:57;14;14;
70249;PMS5003;57644;48.416;-123.374;2022-10-15T08:57:31;13;12;
70249;PMS5003;57644;48.416;-123.374;2022-10-15T08:59:59;15;13;
70249;PMS5003;57644;48.416;-123.374;2022-10-15T09:02:29;13;12;
70249;PMS5003;57644;48.416;-123.374;2022-10-15T09:05:00;12;12;
70249;PMS5003;57644;48.416;-123.374;2022-10-15T09:07:31;11;11;
70249;PMS5003;57644;48.416;-123.374;2022-10-15T09:10:00;14;14;
70249;PMS5003;57644;48.416;-123.374;2022-10-15T09:12:33;15;14;
70249;PMS5003;57644;48.416;-123.374;2022-10-15T09:14:59;13;13;
70249;PMS5003;57644;48.416;-123.374;2022-10-15T09:17:30;16;15;
70249;PMS5003;57644;48.416;-123.374;2022-10-15T09:20:02;12;12;
70249;PMS5003;57644;48.416;-123.374;2022-10-15T09:22:31;18;16;
70249;PMS5003;57644;48.416;-123.374;2022-10-15T09:25:06;13;13;
70249;PMS5003;57644;48.416;-123.374;2022-10-15T09:27:32;12;12;
70249;PMS5003;57644;48.416;-123.374;2022-10-15T09:30:03;14;13;
70249;PMS5003;57644;48.416;-123.374;2022-10-15T09:32:34;13;12;
70249;PMS5003;57644;48.416;-123.374;2022-10-15T09:35:04;13;13;
70249;PMS5003;57644;48.416;-123.374;2022-10-15T09:37:34;16;14;
70249;PMS5003;57644;48.416;-123.374;2022-10-15T09:42:34;15;14;
70249;PMS5003;57644;48.416;-123.374;2022-10-15T09:45:04;13;13;
70249;PMS5003;57644;48.416;-123.374;2022-10-15T09:47:34;12;12;
70249;PMS5003;57644;48.416;-123.374;2022-10-15T09:50:05;14;14;
70249;PMS5003;57644;48.416;-123.374;2022-10-15T09:52:42;11;10;
70249;PMS5003;57644;48.416;-123.374;2022-10-15T09:55:07;15;15;
70249;PMS5003;57644;48.416;-123.374;2022-10-15T09:57:35;13;13;
70249;PMS5003;57644;48.416;-123.374;2022-10-15T10:00:07;13;13;
70249;PMS5003;57644;48.416;-123.374;2022-10-15T10:02:36;13;12;
70249;PMS5003;57644;48.416;-123.374;2022-10-15T10:07:37;11;11;
70249;PMS5003;57644;48.416;-123.374;2022-10-15T10:10:20;12;12;
70249;PMS5003;57644;48.416;-123.374;2022-10-15T10:12:37;12;12;
70249;PMS5003;57644;48.416;-123.374;2022-10-15T10:15:25;13;13;
70249;PMS5003;57644;48.416;-123.374;2022-10-15T10:17:38;13;12;
70249;PMS5003;57644;48.416;-123.374;2022-10-15T10:20:12;16;15;
70249;PMS5003;57644;48.416;-123.374;2022-10-15T10:22:41;12;12;
70249;PMS5003;57644;48.416;-123.374;2022-10-15T10:27:41;13;12;
70249;PMS5003;57644;48.416;-123.374;2022-10-15T10:30:12;19;16;
70249;PMS5003;57644;48.416;-123.374;2022-10-15T10:32:41;16;16;
70249;PMS5003;57644;48.416;-123.374;2022-10-15T10:35:15;13;13;
70249;PMS5003;57644;48.416;-123.374;2022-10-15T10:37:41;13;13;
70249;PMS5003;57644;48.416;-123.374;2022-10-15T10:42:42;14;14;
70249;PMS5003;57644;48.416;-123.374;2022-10-15T10:45:15;13;12;
70249;PMS5003;57644;48.416;-123.374;2022-10-15T10:47:43;13;13;
70249;PMS5003;57644;48.416;-123.374;2022-10-15T10:52:44;14;13;
70249;PMS5003;57644;48.416;-123.374;2022-10-15T10:55:16;16;16;
70249;PMS5003;57644;48.416;-123.374;2022-10-15T10:57:46;17;16;
70249;PMS5003;57644;48.416;-123.374;2022-10-15T11:00:16;14;13;
70249;PMS5003;57644;48.416;-123.374;2022-10-15T11:02:45;15;14;
70249;PMS5003;57644;48.416;-123.374;2022-10-15T11:05:16;16;15;
70249;PMS5003;57644;48.416;-123.374;2022-10-15T11:07:47;16;14;
70249;PMS5003;57644;48.416;-123.374;2022-10-15T11:10:18;19;17;
70249;PMS5003;57644;48.416;-123.374;2022-10-15T11:12:50;12;11;
70249;PMS5003;57644;48.416;-123.374;2022-10-15T11:15:23;13;12;
70249;PMS5003;57644;48.416;-123.374;2022-10-15T11:17:48;13;13;
70249;PMS5003;57644;48.416;-123.374;2022-10-15T11:20:18;16;15;
70249;PMS5003;57644;48.416;-123.374;2022-10-15T11:22:53;13;12;
70249;PMS5003;57644;48.416;-123.374;2022-10-15T11:25:21;14;13;
70249;PMS5003;57644;48.416;-123.374;2022-10-15T11:27:52;10;9;
70249;PMS5003;57644;48.416;-123.374;2022-10-15T11:32:51;15;13;
70249;PMS5003;57644;48.416;-123.374;2022-10-15T11:35:25;14;13;
70249;PMS5003;57644;48.416;-123.374;2022-10-15T11:37:52;13;13;
70249;PMS5003;57644;48.416;-123.374;2022-10-15T11:40:22;12;11;
70249;PMS5003;57644;48.416;-123.374;2022-10-15T11:42:53;12;12;
70249;PMS5003;57644;48.416;-123.374;2022-10-15T11:47:53;13;13;
70249;PMS5003;57644;48.416;-123.374;2022-10-15T11:50:26;12;12;
70249;PMS5003;57644;48.416;-123.374;2022-10-15T11:52:57;12;11;
70249;PMS5003;57644;48.416;-123.374;2022-10-15T11:55:24;13;12;
70249;PMS5003;57644;48.416;-123.374;2022-10-15T11:57:55;11;10;
70249;PMS5003;57644;48.416;-123.374;2022-10-15T12:00:28;15;14;
70249;PMS5003;57644;48.416;-123.374;2022-10-15T12:02:54;10;10;
70249;PMS5003;57644;48.416;-123.374;2022-10-15T12:05:25;13;12;
70249;PMS5003;57644;48.416;-123.374;2022-10-15T12:07:55;13;12;
70249;PMS5003;57644;48.416;-123.374;2022-10-15T12:10:29;13;12;
70249;PMS5003;57644;48.416;-123.374;2022-10-15T12:12:56;13;12;
70249;PMS5003;57644;48.416;-123.374;2022-10-15T12:15:26;16;13;
70249;PMS5003;57644;48.416;-123.374;2022-10-15T12:17:59;12;12;
70249;PMS5003;57644;48.416;-123.374;2022-10-15T12:20:27;12;12;
70249;PMS5003;57644;48.416;-123.374;2022-10-15T12:22:58;11;10;
70249;PMS5003;57644;48.416;-123.374;2022-10-15T12:27:58;10;10;
70249;PMS5003;57644;48.416;-123.374;2022-10-15T12:30:29;12;11;
70249;PMS5003;57644;48.416;-123.374;2022-10-15T12:32:59;16;14;
70249;PMS5003;57644;48.416;-123.374;2022-10-15T12:35:33;11;10;
70249;PMS5003;57644;48.416;-123.374;2022-10-15T12:40:30;11;10;
70249;PMS5003;57644;48.416;-123.374;2022-10-15T12:43:00;13;12;
70249;PMS5003;57644;48.416;-123.374;2022-10-15T12:45:32;12;12;
70249;PMS5003;57644;48.416;-123.374;2022-10-15T12:50:32;10;10;
70249;PMS5003;57644;48.416;-123.374;2022-10-15T12:53:03;10;10;
70249;PMS5003;57644;48.416;-123.374;2022-10-15T12:55:33;15;14;
70249;PMS5003;57644;48.416;-123.374;2022-10-15T12:58:03;12;12;
70249;PMS5003;57644;48.416;-123.374;2022-10-15T13:00:34;14;13;
70249;PMS5003;57644;48.416;-123.374;2022-10-15T13:05:34;11;11;
70249;PMS5003;57644;48.416;-123.374;2022-10-15T13:08:09;11;10;
70249;PMS5003;57644;48.416;-123.374;2022-10-15T13:10:36;11;11;
70249;PMS5003;57644;48.416;-123.374;2022-10-15T13:13:05;15;14;
70249;PMS5003;57644;48.416;-123.374;2022-10-15T13:15:35;13;12;
70249;PMS5003;57644;48.416;-123.374;2022-10-15T13:18:06;10;9;
70249;PMS5003;57644;48.416;-123.374;2022-10-15T13:20:37;12;11;
70249;PMS5003;57644;48.416;-123.374;2022-10-15T13:23:08;10;9;
70249;PMS5003;57644;48.416;-123.374;2022-10-15T13:25:36;11;10;
70249;PMS5003;57644;48.416;-123.374;2022-10-15T13:30:38;11;11;
70249;PMS5003;57644;48.416;-123.374;2022-10-15T13:33:08;13;11;
70249;PMS5003;57644;48.416;-123.374;2022-10-15T13:35:38;10;10;
70249;PMS5003;57644;48.416;-123.374;2022-10-15T13:38:12;13;11;
70249;PMS5003;57644;48.416;-123.374;2022-10-15T13:40:38;11;11;
70249;PMS5003;57644;48.416;-123.374;2022-10-15T13:43:15;12;12;
70249;PMS5003;57644;48.416;-123.374;2022-10-15T13:45:39;13;12;
70249;PMS5003;57644;48.416;-123.374;2022-10-15T13:48:10;12;11;
70249;PMS5003;57644;48.416;-123.374;2022-10-15T13:50:40;10;10;
70249;PMS5003;57644;48.416;-123.374;2022-10-15T13:53:12;11;11;
70249;PMS5003;57644;48.416;-123.374;2022-10-15T13:55:43;11;11;
70249;PMS5003;57644;48.416;-123.374;2022-10-15T13:58:15;12;12;
70249;PMS5003;57644;48.416;-123.374;2022-10-15T14:00:47;15;14;
70249;PMS5003;57644;48.416;-123.374;2022-10-15T14:03:14;13;11;
70249;PMS5003;57644;48.416;-123.374;2022-10-15T14:05:43;12;11;
70249;PMS5003;57644;48.416;-123.374;2022-10-15T14:08:15;10;10;
70249;PMS5003;57644;48.416;-123.374;2022-10-15T14:10:51;17;15;
70249;PMS5003;57644;48.416;-123.374;2022-10-15T14:13:14;13;13;
70249;PMS5003;57644;48.416;-123.374;2022-10-15T14:15:47;15;14;
70249;PMS5003;57644;48.416;-123.374;2022-10-15T14:18:16;12;11;
70249;PMS5003;57644;48.416;-123.374;2022-10-15T14:20:46;15;15;
70249;PMS5003;57644;48.416;-123.374;2022-10-15T14:23:16;13;13;
70249;PMS5003;57644;48.416;-123.374;2022-10-15T14:25:51;13;12;
70249;PMS5003;57644;48.416;-123.374;2022-10-15T14:28:18;13;13;
70249;PMS5003;57644;48.416;-123.374;2022-10-15T14:30:47;11;11;
70249;PMS5003;57644;48.416;-123.374;2022-10-15T14:35:51;9;9;
70249;PMS5003;57644;48.416;-123.374;2022-10-15T14:38:19;10;10;
70249;PMS5003;57644;48.416;-123.374;2022-10-15T14:43:19;15;15;
70249;PMS5003;57644;48.416;-123.374;2022-10-15T14:45:53;13;13;
70249;PMS5003;57644;48.416;-123.374;2022-10-15T14:48:21;13;12;
70249;PMS5003;57644;48.416;-123.374;2022-10-15T14:50:50;12;11;
70249;PMS5003;57644;48.416;-123.374;2022-10-15T14:53:23;17;13;
70249;PMS5003;57644;48.416;-123.374;2022-10-15T14:55:51;11;11;
70249;PMS5003;57644;48.416;-123.374;2022-10-15T14:58:22;11;11;
70249;PMS5003;57644;48.416;-123.374;2022-10-15T15:00:56;14;13;
70249;PMS5003;57644;48.416;-123.374;2022-10-15T15:03:26;10;10;
70249;PMS5003;57644;48.416;-123.374;2022-10-15T15:05:54;16;14;
70249;PMS5003;57644;48.416;-123.374;2022-10-15T15:08:23;20;19;
70249;PMS5003;57644;48.416;-123.374;2022-10-15T15:10:54;19;17;
70249;PMS5003;57644;48.416;-123.374;2022-10-15T15:13:25;16;15;
70249;PMS5003;57644;48.416;-123.374;2022-10-15T15:15:55;12;11;
70249;PMS5003;57644;48.416;-123.374;2022-10-15T15:18:25;13;13;
70249;PMS5003;57644;48.416;-123.374;2022-10-15T15:20:56;13;11;
70249;PMS5003;57644;48.416;-123.374;2022-10-15T15:23:26;11;11;
70249;PMS5003;57644;48.416;-123.374;2022-10-15T15:25:56;12;12;
70249;PMS5003;57644;48.416;-123.374;2022-10-15T15:28:27;12;11;
70249;PMS5003;57644;48.416;-123.374;2022-10-15T15:30:58;12;12;
70249;PMS5003;57644;48.416;-123.374;2022-10-15T15:33:27;15;14;
70249;PMS5003;57644;48.416;-123.374;2022-10-15T15:35:59;10;10;
70249;PMS5003;57644;48.416;-123.374;2022-10-15T15:38:28;16;14;
70249;PMS5003;57644;48.416;-123.374;2022-10-15T15:40:59;11;11;
70249;PMS5003;57644;48.416;-123.374;2022-10-15T15:43:28;19;19;
70249;PMS5003;57644;48.416;-123.374;2022-10-15T15:46:00;19;19;
70249;PMS5003;57644;48.416;-123.374;2022-10-15T15:48:29;19;19;
70249;PMS5003;57644;48.416;-123.374;2022-10-15T15:51:00;20;19;
70249;PMS5003;57644;48.416;-123.374;2022-10-15T15:53:30;16;14;
70249;PMS5003;57644;48.416;-123.374;2022-10-15T15:56:00;9;9;
70249;PMS5003;57644;48.416;-123.374;2022-10-15T15:58:30;10;10;
70249;PMS5003;57644;48.416;-123.374;2022-10-15T16:01:01;12;11;
70249;PMS5003;57644;48.416;-123.374;2022-10-15T16:03:31;12;12;
70249;PMS5003;57644;48.416;-123.374;2022-10-15T16:06:01;12;12;
70249;PMS5003;57644;48.416;-123.374;2022-10-15T16:08:31;11;11;
70249;PMS5003;57644;48.416;-123.374;2022-10-15T16:11:02;13;13;
70249;PMS5003;57644;48.416;-123.374;2022-10-15T16:13:32;23;23;
70249;PMS5003;57644;48.416;-123.374;2022-10-15T16:16:02;14;13;
70249;PMS5003;57644;48.416;-123.374;2022-10-15T16:18:32;15;15;
70249;PMS5003;57644;48.416;-123.374;2022-10-15T16:21:04;16;15;
70249;PMS5003;57644;48.416;-123.374;2022-10-15T16:23:34;11;11;
70249;PMS5003;57644;48.416;-123.374;2022-10-15T16:26:04;13;12;